PDT,Max TemperatureF,Mean TemperatureF,Min TemperatureF,Max Dew PointF,MeanDew PointF,Min DewpointF,Max Humidity, Mean Humidity, Min Humidity, Max Sea Level PressureIn, Mean Sea Level PressureIn, Min Sea Level PressureIn, Max VisibilityMiles, Mean VisibilityMiles, Min VisibilityMiles, Max Wind SpeedMPH, Mean Wind SpeedMPH, Max Gust SpeedMPH,PrecipitationIn, CloudCover, Events, WindDirDegrees
2014-4-1,63,55,47,52,45,39,86,65,43,30.04,30.00,29.96,10,10,7,28,11,36,0.04,3,Rain,265
2014-4-2,62,53,44,46,44,41,93,71,49,30.10,30.03,29.95,10,10,10,25,10,31,0.01,1,,269
2014-4-3,65,53,41,49,44,39,89,68,46,30.17,30.12,30.08,10,10,10,15,6,22,0.00,0,,236
2014-4-4,64,56,48,49,47,44,89,71,52,30.08,30.02,29.97,10,10,10,17,5,22,0.00,1,,259
2014-4-5,69,57,45,48,45,39,86,60,33,30.07,30.01,29.96,10,10,9,17,5,21,0.00,0,,246
2014-4-6,76,61,45,51,44,40,80,56,31,30.12,30.08,30.04,10,10,10,18,5,22,0.00,0,,246
2014-4-7,81,65,49,47,43,39,72,48,23,30.13,30.09,30.06,10,10,10,13,4,17,0.00,0,,256
2014-4-8,84,67,49,54,46,40,93,58,23,30.14,30.09,30.04,10,9,0,10,5,14,0.00,0,Fog,262
2014-4-9,77,63,49,52,49,45,93,68,43,30.08,30.02,29.97,10,6,0,15,5,17,0.00,2,Fog,285
2014-4-10,70,59,47,52,49,46,100,74,47,30.02,29.97,29.93,10,5,0,16,4,24,0.00,2,Fog,268
2014-4-11,71,60,49,52,50,46,86,67,47,29.97,29.93,29.89,10,9,6,14,5,17,0.00,2,,251
2014-4-12,65,59,53,50,48,47,83,70,56,30.01,29.95,29.90,10,10,9,14,5,17,0.00,5,,253
2014-4-13,65,57,49,50,48,46,83,70,56,30.06,30.01,29.98,10,10,10,14,4,18,0.00,3,,222
2014-4-14,72,60,48,53,50,44,93,73,53,30.11,30.06,30.02,10,10,7,13,4,16,0.00,0,,246
2014-4-15,68,59,50,53,51,47,93,74,55,30.01,29.95,29.86,10,5,0,13,4,17,0.00,3,Fog,263
2014-4-16,68,59,50,54,52,46,93,78,63,29.89,29.86,29.82,8,6,5,13,4,17,0.00,1,,238
2014-4-17,68,60,52,54,53,48,93,76,59,29.94,29.88,29.84,10,7,3,15,6,20,0.00,5,,257
2014-4-18,71,64,56,55,53,52,86,70,53,29.97,29.92,29.87,10,9,6,14,6,20,0.00,4,,264
2014-4-19,71,61,51,53,51,47,89,69,49,30.06,30.01,29.95,10,9,7,14,4,18,0.00,0,,237
2014-4-20,72,62,51,56,52,47,86,70,53,30.09,30.06,30.04,10,10,8,14,4,18,0.00,0,,264
2014-4-21,70,62,54,57,55,51,93,77,61,30.08,30.03,29.96,10,6,0,13,4,16,0.00,4,Fog,235
2014-4-22,70,62,53,54,50,47,86,67,47,30.01,29.96,29.91,10,8,5,14,4,28,0.00,3,,201
2014-4-23,72,60,48,50,45,37,83,56,29,30.00,29.96,29.91,10,10,9,16,4,20,0.00,0,,207
2014-4-24,75,62,48,52,46,38,83,57,31,30.01,29.96,29.91,10,10,8,16,5,20,0.00,0,,206
2014-4-25,68,59,50,54,51,46,86,72,58,29.95,29.90,29.82,10,10,9,28,9,39,T,4,Rain,260
2014-4-26,66,58,50,46,43,39,77,59,40,30.02,29.92,29.80,10,10,8,33,18,40,0.00,0,,272
2014-4-27,70,60,49,52,46,40,83,58,33,30.04,30.01,29.99,10,10,10,15,6,22,0.00,0,,202
2014-4-28,80,64,48,51,47,41,83,54,25,30.06,30.00,29.94,10,10,10,15,5,17,0.00,0,,291
2014-4-29,95,76,57,43,28,13,51,28,5,30.09,30.04,29.99,10,10,8,38,17,48,0.00,0,,54
2014-4-30,94,74,53,48,21,5,60,32,4,30.08,30.02,29.96,10,10,8,39,15,51,0.00,0,,43